Time,TemperatureF,DewpointF,PressureIn,WindDirection,WindDirectionDegrees,WindSpeedMPH,WindSpeedGustMPH,Humidity,HourlyPrecipIn,Conditions,Clouds,dailyrainin,SoftwareType,DateUTC
2013-02-22 00:04:00,44.2,30.0,29.88,NW,315,0.0,0.9,57,0.00,,---,0.00,VWS V14.00,2013-02-22 08:04:00,
2013-02-22 00:09:00,43.9,29.2,29.88,WSW,248,0.0,0.0,56,0.00,,---,0.00,VWS V14.00,2013-02-22 08:09:00,
2013-02-22 00:15:00,43.7,29.5,29.88,NW,315,2.2,2.2,57,0.00,,---,0.00,VWS V14.00,2013-02-22 08:15:00,
2013-02-22 00:20:00,43.7,29.0,29.88,SSW,202,0.0,0.0,56,0.00,,---,0.00,VWS V14.00,2013-02-22 08:20:00,
2013-02-22 00:25:00,43.5,28.9,29.88,NNW,338,0.0,0.0,56,0.00,,---,0.00,VWS V14.00,2013-02-22 08:25:00,
2013-02-22 00:30:00,43.5,29.3,29.88,NNW,338,0.0,0.0,57,0.00,,---,0.00,VWS V14.00,2013-02-22 08:30:00,
2013-02-22 00:35:00,43.3,29.1,29.88,WNW,292,2.5,2.5,57,0.00,,---,0.00,VWS V14.00,2013-02-22 08:35:00,
2013-02-22 00:40:00,43.3,29.1,29.88,NW,315,2.5,2.5,57,0.00,,---,0.00,VWS V14.00,2013-02-22 08:40:00,
2013-02-22 00:45:00,43.3,29.1,29.88,NW,315,0.0,1.3,57,0.00,,---,0.00,VWS V14.00,2013-02-22 08:45:00,
2013-02-22 00:51:00,43.0,28.8,29.88,South,180,0.0,0.0,57,0.00,,---,0.00,VWS V14.00,2013-02-22 08:51:00,
2013-02-22 00:58:00,43.0,28.8,29.88,NW,315,0.0,0.0,57,0.00,,---,0.00,VWS V14.00,2013-02-22 08:58:00,
2013-02-22 01:03:00,43.0,28.8,29.88,NW,315,0.0,0.0,57,0.00,,---,0.00,VWS V14.00,2013-02-22 09:03:00,
2013-02-22 01:08:00,42.8,29.1,29.88,NNW,338,1.3,1.3,58,0.00,,---,0.00,VWS V14.00,2013-02-22 09:08:00,
2013-02-22 01:13:00,43.0,29.2,29.88,NW,315,0.0,0.0,58,0.00,,---,0.00,VWS V14.00,2013-02-22 09:13:00,
2013-02-22 01:18:00,43.0,29.2,29.88,NW,315,1.1,1.1,58,0.00,,---,0.00,VWS V14.00,2013-02-22 09:18:00,
2013-02-22 01:23:00,43.0,29.2,29.88,NW,315,1.1,1.1,58,0.00,,---,0.00,VWS V14.00,2013-02-22 09:23:00,
2013-02-22 01:28:00,42.3,29.0,29.88,West,270,1.6,1.6,59,0.00,,---,0.00,VWS V14.00,2013-02-22 09:28:00,
2013-02-22 01:33:00,42.3,29.0,29.88,West,270,0.0,0.0,59,0.00,,---,0.00,VWS V14.00,2013-02-22 09:33:00,
2013-02-22 01:38:00,42.3,29.0,29.88,NW,315,1.6,1.6,59,0.00,,---,0.00,VWS V14.00,2013-02-22 09:38:00,
2013-02-22 01:44:00,42.3,29.4,29.88,NW,315,0.0,0.0,60,0.00,,---,0.00,VWS V14.00,2013-02-22 09:44:00,
2013-02-22 01:50:00,42.3,29.4,29.88,NW,315,0.0,0.0,60,0.00,,---,0.00,VWS V14.00,2013-02-22 09:50:00,
2013-02-22 01:55:00,42.1,29.2,29.88,NW,315,0.0,0.0,60,0.00,,---,0.00,VWS V14.00,2013-02-22 09:55:00,
2013-02-22 02:01:00,42.1,29.2,29.88,NNW,338,1.1,1.1,60,0.00,,---,0.00,VWS V14.00,2013-02-22 10:01:00,
2013-02-22 02:06:00,42.1,29.2,29.85,NNW,338,1.1,1.1,60,0.00,,---,0.00,VWS V14.00,2013-02-22 10:06:00,
2013-02-22 02:11:00,42.1,29.6,29.85,NNW,338,1.1,1.1,61,0.00,,---,0.00,VWS V14.00,2013-02-22 10:11:00,
2013-02-22 02:16:00,42.1,29.6,29.85,West,270,0.0,1.1,61,0.00,,---,0.00,VWS V14.00,2013-02-22 10:16:00,
2013-02-22 02:21:00,42.1,29.6,29.88,WNW,292,1.3,1.3,61,0.00,,---,0.00,VWS V14.00,2013-02-22 10:21:00,
2013-02-22 02:26:00,42.1,29.6,29.88,NW,315,0.0,0.0,61,0.00,,---,0.00,VWS V14.00,2013-02-22 10:26:00,
2013-02-22 02:31:00,42.1,30.0,29.88,NW,315,0.0,0.0,62,0.00,,---,0.00,VWS V14.00,2013-02-22 10:31:00,
2013-02-22 02:37:00,41.7,29.7,29.85,NW,315,0.0,0.0,62,0.00,,---,0.00,VWS V14.00,2013-02-22 10:37:00,
2013-02-22 02:43:00,41.7,29.7,29.85,NW,315,0.0,0.0,62,0.00,,---,0.00,VWS V14.00,2013-02-22 10:43:00,
2013-02-22 02:48:00,41.7,29.7,29.85,NW,315,0.0,0.0,62,0.00,,---,0.00,VWS V14.00,2013-02-22 10:48:00,
2013-02-22 02:53:00,41.7,29.7,29.85,NW,315,0.0,0.0,62,0.00,,---,0.00,VWS V14.00,2013-02-22 10:53:00,
2013-02-22 02:58:00,41.7,30.1,29.85,NW,315,1.1,1.3,63,0.00,,---,0.00,VWS V14.00,2013-02-22 10:58:00,
2013-02-22 03:03:00,41.5,29.9,29.85,NW,315,0.0,0.0,63,0.00,,---,0.00,VWS V14.00,2013-02-22 11:03:00,
2013-02-22 03:09:00,41.4,30.1,29.85,NW,315,0.0,0.0,64,0.00,,---,0.00,VWS V14.00,2013-02-22 11:09:00,
2013-02-22 03:14:00,41.2,29.9,29.85,NW,315,0.0,0.0,64,0.00,,---,0.00,VWS V14.00,2013-02-22 11:14:00,
2013-02-22 03:19:00,41.2,29.9,29.85,NW,315,0.0,0.0,64,0.00,,---,0.00,VWS V14.00,2013-02-22 11:19:00,
2013-02-22 03:24:00,41.2,29.9,29.85,NW,315,0.0,0.0,64,0.00,,---,0.00,VWS V14.00,2013-02-22 11:24:00,
2013-02-22 03:29:00,41.2,30.3,29.85,SW,225,1.1,1.1,65,0.00,,---,0.00,VWS V14.00,2013-02-22 11:29:00,
2013-02-22 03:35:00,41.2,30.7,29.85,NW,315,1.6,1.6,66,0.00,,---,0.00,VWS V14.00,2013-02-22 11:35:00,
2013-02-22 03:40:00,41.4,30.9,29.85,WNW,292,3.1,3.1,66,0.00,,---,0.00,VWS V14.00,2013-02-22 11:40:00,
2013-02-22 03:45:00,41.4,30.9,29.85,NW,315,1.6,1.6,66,0.00,,---,0.00,VWS V14.00,2013-02-22 11:45:00,
2013-02-22 03:50:00,41.4,30.9,29.85,NW,315,1.6,1.6,66,0.00,,---,0.00,VWS V14.00,2013-02-22 11:50:00,
2013-02-22 03:55:00,41.2,31.1,29.88,NW,315,0.0,0.0,67,0.00,,---,0.00,VWS V14.00,2013-02-22 11:55:00,
2013-02-22 04:01:00,41.4,31.2,29.88,NNW,338,0.0,0.0,67,0.00,,---,0.00,VWS V14.00,2013-02-22 12:01:00,
2013-02-22 04:06:00,41.2,31.4,29.88,NNW,338,0.0,0.0,68,0.00,,---,0.00,VWS V14.00,2013-02-22 12:06:00,
2013-02-22 04:12:00,41.0,31.3,29.88,NW,315,0.0,0.0,68,0.00,,---,0.00,VWS V14.00,2013-02-22 12:12:00,
2013-02-22 04:17:00,41.0,31.3,29.88,WNW,292,1.1,1.6,68,0.00,,---,0.00,VWS V14.00,2013-02-22 12:17:00,
2013-02-22 04:23:00,41.0,31.3,29.88,WNW,292,1.1,1.1,68,0.00,,---,0.00,VWS V14.00,2013-02-22 12:23:00,
2013-02-22 04:28:00,41.0,31.3,29.88,WNW,292,1.1,1.1,68,0.00,,---,0.00,VWS V14.00,2013-02-22 12:28:00,
2013-02-22 04:33:00,41.2,31.4,29.88,NW,315,2.0,2.0,68,0.00,,---,0.00,VWS V14.00,2013-02-22 12:33:00,
2013-02-22 04:39:00,41.0,31.3,29.88,NW,315,0.0,0.0,68,0.00,,---,0.00,VWS V14.00,2013-02-22 12:39:00,
2013-02-22 04:45:00,41.0,31.3,29.88,NNW,338,2.5,2.5,68,0.00,,---,0.00,VWS V14.00,2013-02-22 12:45:00,
2013-02-22 04:50:00,41.0,31.3,29.88,NNW,338,1.6,1.6,68,0.00,,---,0.00,VWS V14.00,2013-02-22 12:50:00,
2013-02-22 04:55:00,40.8,31.8,29.88,NNW,338,0.0,0.0,70,0.00,,---,0.00,VWS V14.00,2013-02-22 12:55:00,
2013-02-22 05:01:00,40.6,31.6,29.88,NNW,338,0.0,0.0,70,0.00,,---,0.00,VWS V14.00,2013-02-22 13:01:00,
2013-02-22 05:07:00,40.6,31.6,29.88,South,180,0.0,0.0,70,0.00,,---,0.00,VWS V14.00,2013-02-22 13:07:00,
2013-02-22 05:12:00,40.6,31.6,29.88,WSW,248,0.0,0.0,70,0.00,,---,0.00,VWS V14.00,2013-02-22 13:12:00,
2013-02-22 05:17:00,40.6,31.6,29.88,WSW,248,0.0,0.0,70,0.00,,---,0.00,VWS V14.00,2013-02-22 13:17:00,
2013-02-22 05:23:00,40.6,31.6,29.88,SW,225,0.0,0.0,70,0.00,,---,0.00,VWS V14.00,2013-02-22 13:23:00,
2013-02-22 05:28:00,40.6,31.6,29.88,NW,315,2.5,2.5,70,0.00,,---,0.00,VWS V14.00,2013-02-22 13:28:00,
2013-02-22 05:34:00,40.8,32.2,29.88,NW,315,0.0,1.3,71,0.00,,---,0.00,VWS V14.00,2013-02-22 13:34:00,
2013-02-22 05:39:00,40.8,32.2,29.88,NW,315,0.0,0.0,71,0.00,,---,0.00,VWS V14.00,2013-02-22 13:39:00,
2013-02-22 05:44:00,40.5,31.8,29.88,WNW,292,1.1,1.1,71,0.00,,---,0.00,VWS V14.00,2013-02-22 13:44:00,
2013-02-22 05:49:00,40.5,31.8,29.91,West,270,1.3,1.3,71,0.00,,---,0.00,VWS V14.00,2013-02-22 13:49:00,
2013-02-22 05:54:00,40.6,32.0,29.91,NW,315,0.0,0.0,71,0.00,,---,0.00,VWS V14.00,2013-02-22 13:54:00,
2013-02-22 05:59:00,40.6,32.0,29.91,WSW,248,0.0,0.0,71,0.00,,---,0.00,VWS V14.00,2013-02-22 13:59:00,
2013-02-22 06:05:00,40.6,32.3,29.91,SSW,202,1.6,1.6,72,0.00,,---,0.00,VWS V14.00,2013-02-22 14:05:00,
2013-02-22 06:10:00,40.6,32.3,29.91,SSW,202,0.9,0.9,72,0.00,,---,0.00,VWS V14.00,2013-02-22 14:10:00,
2013-02-22 06:15:00,40.6,32.3,29.91,WNW,292,0.0,0.0,72,0.00,,---,0.00,VWS V14.00,2013-02-22 14:15:00,
2013-02-22 06:20:00,40.6,32.3,29.91,WNW,292,0.0,0.0,72,0.00,,---,0.00,VWS V14.00,2013-02-22 14:20:00,
2013-02-22 06:26:00,40.6,32.3,29.91,WNW,292,0.0,0.0,72,0.00,,---,0.00,VWS V14.00,2013-02-22 14:26:00,
2013-02-22 06:31:00,40.6,32.7,29.91,NW,315,0.9,1.1,73,0.00,,---,0.00,VWS V14.00,2013-02-22 14:31:00,
2013-02-22 06:36:00,40.5,32.5,29.94,NNW,338,2.5,2.5,73,0.00,,---,0.00,VWS V14.00,2013-02-22 14:36:00,
2013-02-22 06:41:00,40.5,32.5,29.94,WSW,248,1.3,1.3,73,0.00,,---,0.00,VWS V14.00,2013-02-22 14:41:00,
2013-02-22 06:46:00,40.5,32.5,29.94,WNW,292,1.6,1.6,73,0.00,,---,0.00,VWS V14.00,2013-02-22 14:46:00,
2013-02-22 06:51:00,40.5,32.8,29.94,NW,315,2.5,2.5,74,0.00,,---,0.00,VWS V14.00,2013-02-22 14:51:00,
2013-02-22 06:57:00,40.5,32.8,29.94,NW,315,2.5,2.5,74,0.00,,---,0.00,VWS V14.00,2013-02-22 14:57:00,
2013-02-22 07:02:00,40.6,33.0,29.94,NW,315,2.5,2.5,74,0.00,,---,0.00,VWS V14.00,2013-02-22 15:02:00,
2013-02-22 07:07:00,40.6,33.0,29.94,WSW,248,0.0,0.0,74,0.00,,---,0.00,VWS V14.00,2013-02-22 15:07:00,
2013-02-22 07:12:00,40.8,33.2,29.94,West,270,1.1,1.1,74,0.00,,---,0.00,VWS V14.00,2013-02-22 15:12:00,
2013-02-22 07:17:00,40.8,33.2,29.94,NW,315,1.1,2.0,74,0.00,,---,0.00,VWS V14.00,2013-02-22 15:17:00,
2013-02-22 07:22:00,40.8,33.2,29.94,NNW,338,0.0,0.0,74,0.00,,---,0.00,VWS V14.00,2013-02-22 15:22:00,
2013-02-22 07:27:00,40.8,33.2,29.94,NNW,338,0.0,0.0,74,0.00,,---,0.00,VWS V14.00,2013-02-22 15:27:00,
2013-02-22 07:32:00,40.8,33.2,29.94,NW,315,0.0,0.0,74,0.00,,---,0.00,VWS V14.00,2013-02-22 15:32:00,
2013-02-22 07:37:00,40.8,33.2,29.94,SSE,158,1.3,1.3,74,0.00,,---,0.00,VWS V14.00,2013-02-22 15:37:00,
2013-02-22 07:43:00,41.5,34.2,29.94,SSE,158,2.7,2.7,75,0.00,,---,0.00,VWS V14.00,2013-02-22 15:43:00,
2013-02-22 07:49:00,42.8,35.4,29.97,SSE,158,2.7,2.7,75,0.00,,---,0.00,VWS V14.00,2013-02-22 15:49:00,
2013-02-22 07:54:00,43.5,36.1,29.97,SSE,158,1.3,2.5,75,0.00,,---,0.00,VWS V14.00,2013-02-22 15:54:00,
2013-02-22 07:59:00,43.5,36.1,29.97,SSE,158,1.6,2.7,75,0.00,,---,0.00,VWS V14.00,2013-02-22 15:59:00,
2013-02-22 08:04:00,43.5,36.1,29.94,NNE,22,0.0,0.0,75,0.00,,---,0.00,VWS V14.00,2013-02-22 16:04:00,
2013-02-22 08:10:00,46.6,38.8,29.94,NNE,22,0.0,1.1,74,0.00,,---,0.00,VWS V14.00,2013-02-22 16:10:00,
2013-02-22 08:15:00,47.1,38.9,29.94,North,0,0.0,0.0,73,0.00,,---,0.00,VWS V14.00,2013-02-22 16:15:00,
2013-02-22 08:21:00,47.5,39.3,29.97,North,0,0.0,0.0,73,0.00,,---,0.00,VWS V14.00,2013-02-22 16:21:00,
2013-02-22 08:26:00,48.6,40.0,29.97,North,0,0.0,0.0,72,0.00,,---,0.00,VWS V14.00,2013-02-22 16:26:00,
2013-02-22 08:31:00,49.5,40.8,29.97,North,0,0.0,0.0,72,0.00,,---,0.00,VWS V14.00,2013-02-22 16:31:00,
2013-02-22 08:36:00,50.2,40.4,29.94,SSE,158,2.2,2.5,69,0.00,,---,0.00,VWS V14.00,2013-02-22 16:36:00,
2013-02-22 08:42:00,50.2,40.4,29.94,NE,45,1.6,1.6,69,0.00,,---,0.00,VWS V14.00,2013-02-22 16:42:00,
2013-02-22 08:47:00,51.3,41.1,29.94,East,90,0.9,0.9,68,0.00,,---,0.00,VWS V14.00,2013-02-22 16:47:00,
2013-02-22 08:53:00,51.8,40.8,29.94,South,180,0.9,1.6,66,0.00,,---,0.00,VWS V14.00,2013-02-22 16:53:00,
2013-02-22 08:58:00,51.8,40.8,29.94,South,180,2.5,2.5,66,0.00,,---,0.00,VWS V14.00,2013-02-22 16:58:00,
2013-02-22 09:04:00,53.1,41.6,29.97,NW,315,1.3,1.3,65,0.00,,---,0.00,VWS V14.00,2013-02-22 17:04:00,
2013-02-22 09:10:00,53.2,41.4,29.97,East,90,0.0,0.0,64,0.00,,---,0.00,VWS V14.00,2013-02-22 17:10:00,
2013-02-22 09:15:00,54.1,42.2,29.97,East,90,0.0,0.0,64,0.00,,---,0.00,VWS V14.00,2013-02-22 17:15:00,
2013-02-22 09:20:00,54.5,42.2,29.97,South,180,1.6,2.5,63,0.00,,---,0.00,VWS V14.00,2013-02-22 17:20:00,
2013-02-22 09:26:00,54.9,42.1,29.97,ENE,68,2.9,2.9,62,0.00,,---,0.00,VWS V14.00,2013-02-22 17:26:00,
2013-02-22 09:31:00,55.2,42.4,29.97,NNE,22,0.0,0.0,62,0.00,,---,0.00,VWS V14.00,2013-02-22 17:31:00,
2013-02-22 09:36:00,55.4,42.2,29.97,NNE,22,0.0,0.0,61,0.00,,---,0.00,VWS V14.00,2013-02-22 17:36:00,
2013-02-22 09:41:00,55.6,41.9,29.97,NNW,338,0.9,2.5,60,0.00,,---,0.00,VWS V14.00,2013-02-22 17:41:00,
2013-02-22 09:47:00,55.6,41.9,29.97,NW,315,0.0,0.0,60,0.00,,---,0.00,VWS V14.00,2013-02-22 17:47:00,
2013-02-22 09:52:00,55.6,41.9,29.97,NNE,22,0.0,1.3,60,0.00,,---,0.00,VWS V14.00,2013-02-22 17:52:00,
2013-02-22 09:57:00,56.3,41.7,29.97,NNE,22,2.5,2.5,58,0.00,,---,0.00,VWS V14.00,2013-02-22 17:57:00,
2013-02-22 10:02:00,56.3,41.7,29.97,WNW,292,1.3,1.3,58,0.00,,---,0.00,VWS V14.00,2013-02-22 18:02:00,
2013-02-22 10:08:00,56.8,41.3,29.97,NNE,22,2.5,4.3,56,0.00,,---,0.00,VWS V14.00,2013-02-22 18:08:00,
2013-02-22 10:14:00,57.0,41.5,29.97,NNE,22,5.4,5.4,56,0.00,,---,0.00,VWS V14.00,2013-02-22 18:14:00,
2013-02-22 10:19:00,57.0,41.5,29.97,NNE,22,2.5,3.8,56,0.00,,---,0.00,VWS V14.00,2013-02-22 18:19:00,
2013-02-22 10:24:00,57.6,41.1,29.97,North,0,1.3,1.3,54,0.00,,---,0.00,VWS V14.00,2013-02-22 18:24:00,
2013-02-22 10:30:00,57.6,41.1,29.97,NNW,338,0.9,1.1,54,0.00,,---,0.00,VWS V14.00,2013-02-22 18:30:00,
2013-02-22 10:36:00,58.1,41.6,29.97,NNW,338,1.3,1.3,54,0.00,,---,0.00,VWS V14.00,2013-02-22 18:36:00,
2013-02-22 10:41:00,58.6,41.6,29.97,NNE,22,0.9,0.9,53,0.00,,---,0.00,VWS V14.00,2013-02-22 18:41:00,
2013-02-22 10:46:00,59.2,41.6,29.97,NE,45,3.1,3.1,52,0.00,,---,0.00,VWS V14.00,2013-02-22 18:46:00,
2013-02-22 10:52:00,59.7,42.1,29.97,NNE,22,3.1,3.1,52,0.00,,---,0.00,VWS V14.00,2013-02-22 18:52:00,
2013-02-22 10:57:00,59.7,42.1,29.97,WNW,292,1.1,1.1,52,0.00,,---,0.00,VWS V14.00,2013-02-22 18:57:00,
2013-02-22 11:02:00,60.3,42.1,29.97,WNW,292,2.9,2.9,51,0.00,,---,0.00,VWS V14.00,2013-02-22 19:02:00,
2013-02-22 11:07:00,61.0,42.7,29.97,North,0,0.9,0.9,51,0.00,,---,0.00,VWS V14.00,2013-02-22 19:07:00,
2013-02-22 11:13:00,61.5,43.2,29.97,NNW,338,1.1,3.4,51,0.00,,---,0.00,VWS V14.00,2013-02-22 19:13:00,
2013-02-22 11:18:00,62.2,43.4,29.97,SSW,202,1.1,1.1,50,0.00,,---,0.00,VWS V14.00,2013-02-22 19:18:00,
2013-02-22 11:23:00,62.2,43.4,29.97,NNW,338,0.9,0.9,50,0.00,,---,0.00,VWS V14.00,2013-02-22 19:23:00,
2013-02-22 11:28:00,62.2,43.4,29.97,NNW,338,2.5,2.9,50,0.00,,---,0.00,VWS V14.00,2013-02-22 19:28:00,
2013-02-22 11:33:00,65.1,45.0,29.97,NNE,22,1.6,3.8,48,0.00,,---,0.00,VWS V14.00,2013-02-22 19:33:00,
2013-02-22 11:38:00,65.5,44.7,29.97,NNW,338,1.1,1.1,47,0.00,,---,0.00,VWS V14.00,2013-02-22 19:38:00,
2013-02-22 11:44:00,65.8,44.5,29.97,North,0,2.2,2.2,46,0.00,,---,0.00,VWS V14.00,2013-02-22 19:44:00,
2013-02-22 11:49:00,66.4,44.4,29.97,ENE,68,1.1,2.7,45,0.00,,---,0.00,VWS V14.00,2013-02-22 19:49:00,
2013-02-22 11:54:00,66.9,44.9,29.97,ESE,112,3.8,4.3,45,0.00,,---,0.00,VWS V14.00,2013-02-22 19:54:00,
2013-02-22 11:59:00,67.3,44.0,29.97,NW,315,1.6,1.6,43,0.00,,---,0.00,VWS V14.00,2013-02-22 19:59:00,
2013-02-22 12:04:00,67.8,44.5,29.97,West,270,2.5,2.7,43,0.00,,---,0.00,VWS V14.00,2013-02-22 20:04:00,
2013-02-22 12:09:00,68.2,44.2,29.97,SSE,158,2.7,3.8,42,0.00,,---,0.00,VWS V14.00,2013-02-22 20:09:00,
2013-02-22 12:15:00,68.2,44.2,29.97,ENE,68,3.6,4.0,42,0.00,,---,0.00,VWS V14.00,2013-02-22 20:15:00,
2013-02-22 12:20:00,68.2,44.2,29.94,ESE,112,2.5,2.5,42,0.00,,---,0.00,VWS V14.00,2013-02-22 20:20:00,
2013-02-22 12:26:00,67.5,43.6,29.94,WNW,292,1.6,3.1,42,0.00,,---,0.00,VWS V14.00,2013-02-22 20:26:00,
2013-02-22 12:31:00,67.5,43.6,29.94,NW,315,3.1,3.1,42,0.00,,---,0.00,VWS V14.00,2013-02-22 20:31:00,
2013-02-22 12:36:00,69.1,45.0,29.94,NNE,22,0.9,0.9,42,0.00,,---,0.00,VWS V14.00,2013-02-22 20:36:00,
2013-02-22 12:41:00,69.4,44.7,29.94,North,0,1.6,2.9,41,0.00,,---,0.00,VWS V14.00,2013-02-22 20:41:00,
2013-02-22 12:46:00,69.6,44.2,29.94,WNW,292,3.1,6.0,40,0.00,,---,0.00,VWS V14.00,2013-02-22 20:46:00,
2013-02-22 12:52:00,69.6,44.2,29.94,NW,315,1.1,3.4,40,0.00,,---,0.00,VWS V14.00,2013-02-22 20:52:00,
2013-02-22 12:57:00,70.3,44.2,29.94,North,0,2.7,2.7,39,0.00,,---,0.00,VWS V14.00,2013-02-22 20:57:00,
2013-02-22 13:02:00,70.3,44.2,29.94,NNW,338,2.2,2.7,39,0.00,,---,0.00,VWS V14.00,2013-02-22 21:02:00,
2013-02-22 13:07:00,71.1,43.5,29.94,NNE,22,4.0,4.0,37,0.00,,---,0.00,VWS V14.00,2013-02-22 21:07:00,
2013-02-22 13:12:00,71.1,43.5,29.94,NNW,338,2.0,2.0,37,0.00,,---,0.00,VWS V14.00,2013-02-22 21:12:00,
2013-02-22 13:17:00,71.1,43.5,29.94,NNW,338,1.1,2.0,37,0.00,,---,0.00,VWS V14.00,2013-02-22 21:17:00,
2013-02-22 13:22:00,71.8,43.4,29.94,North,0,2.9,2.9,36,0.00,,---,0.00,VWS V14.00,2013-02-22 21:22:00,
2013-02-22 13:27:00,72.0,43.6,29.94,WNW,292,0.9,1.3,36,0.00,,---,0.00,VWS V14.00,2013-02-22 21:27:00,
2013-02-22 13:33:00,72.0,43.6,29.94,NNW,338,0.9,2.5,36,0.00,,---,0.00,VWS V14.00,2013-02-22 21:33:00,
2013-02-22 13:40:00,72.0,43.6,29.94,NE,45,5.6,5.6,36,0.00,,---,0.00,VWS V14.00,2013-02-22 21:40:00,
2013-02-22 13:45:00,71.6,43.3,29.94,NNE,22,3.8,4.3,36,0.00,,---,0.00,VWS V14.00,2013-02-22 21:45:00,
2013-02-22 13:50:00,71.8,43.4,29.91,NW,315,1.6,3.1,36,0.00,,---,0.00,VWS V14.00,2013-02-22 21:50:00,
2013-02-22 13:56:00,71.6,43.3,29.91,NE,45,4.0,4.0,36,0.00,,---,0.00,VWS V14.00,2013-02-22 21:56:00,
2013-02-22 14:01:00,71.6,43.3,29.91,North,0,2.7,3.4,36,0.00,,---,0.00,VWS V14.00,2013-02-22 22:01:00,
2013-02-22 14:06:00,71.1,42.8,29.91,NNW,338,2.7,5.8,36,0.00,,---,0.00,VWS V14.00,2013-02-22 22:06:00,
2013-02-22 14:11:00,70.7,42.5,29.91,SW,225,2.2,2.5,36,0.00,,---,0.00,VWS V14.00,2013-02-22 22:11:00,
2013-02-22 14:17:00,70.7,42.5,29.91,NE,45,2.7,2.7,36,0.00,,---,0.00,VWS V14.00,2013-02-22 22:17:00,
2013-02-22 14:22:00,70.7,42.5,29.94,SSW,202,6.0,6.0,36,0.00,,---,0.00,VWS V14.00,2013-02-22 22:22:00,
2013-02-22 14:27:00,69.3,41.9,29.94,NW,315,3.6,7.4,37,0.00,,---,0.00,VWS V14.00,2013-02-22 22:27:00,
2013-02-22 14:32:00,69.3,41.9,29.91,NNW,338,3.8,6.3,37,0.00,,---,0.00,VWS V14.00,2013-02-22 22:32:00,
2013-02-22 14:37:00,69.6,42.2,29.91,WNW,292,4.9,6.5,37,0.00,,---,0.00,VWS V14.00,2013-02-22 22:37:00,
2013-02-22 14:42:00,69.6,42.2,29.91,NNW,338,5.6,5.6,37,0.00,,---,0.00,VWS V14.00,2013-02-22 22:42:00,
2013-02-22 14:47:00,69.6,42.2,29.91,WNW,292,6.0,6.3,37,0.00,,---,0.00,VWS V14.00,2013-02-22 22:47:00,
2013-02-22 14:53:00,69.6,40.8,29.91,WNW,292,5.4,6.5,35,0.00,,---,0.00,VWS V14.00,2013-02-22 22:53:00,
2013-02-22 14:58:00,68.9,40.2,29.91,WNW,292,3.1,9.6,35,0.00,,---,0.00,VWS V14.00,2013-02-22 22:58:00,
2013-02-22 15:04:00,68.9,40.2,29.91,WNW,292,7.8,7.8,35,0.00,,---,0.00,VWS V14.00,2013-02-22 23:04:00,
2013-02-22 15:09:00,68.9,40.2,29.91,NNW,338,6.0,6.0,35,0.00,,---,0.00,VWS V14.00,2013-02-22 23:09:00,
2013-02-22 15:15:00,68.2,38.8,29.91,NNW,338,7.4,7.4,34,0.00,,---,0.00,VWS V14.00,2013-02-22 23:15:00,
2013-02-22 15:20:00,67.8,38.5,29.91,NW,315,7.6,7.6,34,0.00,,---,0.00,VWS V14.00,2013-02-22 23:20:00,
2013-02-22 15:25:00,67.6,38.3,29.91,NW,315,5.4,6.7,34,0.00,,---,0.00,VWS V14.00,2013-02-22 23:25:00,
2013-02-22 15:30:00,67.6,38.3,29.91,NW,315,5.8,5.8,34,0.00,,---,0.00,VWS V14.00,2013-02-22 23:30:00,
2013-02-22 15:36:00,67.1,37.8,29.91,NW,315,4.3,4.3,34,0.00,,---,0.00,VWS V14.00,2013-02-22 23:36:00,
2013-02-22 15:41:00,67.3,38.0,29.91,WNW,292,5.4,5.4,34,0.00,,---,0.00,VWS V14.00,2013-02-22 23:41:00,
2013-02-22 15:46:00,67.3,38.0,29.91,NW,315,4.9,5.4,34,0.00,,---,0.00,VWS V14.00,2013-02-22 23:46:00,
2013-02-22 15:51:00,67.3,38.0,29.91,NW,315,4.7,6.3,34,0.00,,---,0.00,VWS V14.00,2013-02-22 23:51:00,
2013-02-22 15:56:00,67.1,37.8,29.91,NW,315,2.9,4.0,34,0.00,,---,0.00,VWS V14.00,2013-02-22 23:56:00,
2013-02-22 16:01:00,66.7,37.5,29.91,NNW,338,5.6,6.5,34,0.00,,---,0.00,VWS V14.00,2013-02-23 00:01:00,
2013-02-22 16:07:00,66.7,37.5,29.91,West,270,10.3,10.3,34,0.00,,---,0.00,VWS V14.00,2013-02-23 00:07:00,
2013-02-22 16:12:00,66.4,37.2,29.91,NNW,338,5.4,8.7,34,0.00,,---,0.00,VWS V14.00,2013-02-23 00:12:00,
2013-02-22 16:17:00,66.4,37.2,29.91,NNW,338,3.8,8.5,34,0.00,,---,0.00,VWS V14.00,2013-02-23 00:17:00,
2013-02-22 16:22:00,64.6,36.3,29.91,WNW,292,2.7,6.0,35,0.00,,---,0.00,VWS V14.00,2013-02-23 00:22:00,
2013-02-22 16:27:00,64.4,36.2,29.91,WNW,292,8.5,8.5,35,0.00,,---,0.00,VWS V14.00,2013-02-23 00:27:00,
2013-02-22 16:33:00,64.0,35.9,29.91,NNW,338,3.8,3.8,35,0.00,,---,0.00,VWS V14.00,2013-02-23 00:33:00,
2013-02-22 16:38:00,63.9,35.7,29.91,WNW,292,10.7,10.7,35,0.00,,---,0.00,VWS V14.00,2013-02-23 00:38:00,
2013-02-22 16:44:00,63.9,35.7,29.91,NNW,338,8.1,9.6,35,0.00,,---,0.00,VWS V14.00,2013-02-23 00:44:00,
2013-02-22 16:49:00,61.7,35.2,29.91,NW,315,4.7,5.6,37,0.00,,---,0.00,VWS V14.00,2013-02-23 00:49:00,
2013-02-22 16:54:00,61.2,34.7,29.91,NNW,338,4.9,4.9,37,0.00,,---,0.00,VWS V14.00,2013-02-23 00:54:00,
2013-02-22 16:59:00,60.4,34.7,29.91,NW,315,4.3,4.3,38,0.00,,---,0.00,VWS V14.00,2013-02-23 00:59:00,
2013-02-22 17:05:00,60.4,34.7,29.91,West,270,2.0,4.0,38,0.00,,---,0.00,VWS V14.00,2013-02-23 01:05:00,
2013-02-22 17:10:00,59.5,33.9,29.91,WNW,292,2.7,2.7,38,0.00,,---,0.00,VWS V14.00,2013-02-23 01:10:00,
2013-02-22 17:16:00,59.2,34.3,29.91,NW,315,4.0,4.0,39,0.00,,---,0.00,VWS V14.00,2013-02-23 01:16:00,
2013-02-22 17:21:00,58.8,33.9,29.91,WNW,292,8.5,8.5,39,0.00,,---,0.00,VWS V14.00,2013-02-23 01:21:00,
2013-02-22 17:27:00,58.3,34.1,29.91,WNW,292,2.0,2.5,40,0.00,,---,0.00,VWS V14.00,2013-02-23 01:27:00,
2013-02-22 17:32:00,57.9,33.8,29.91,NNW,338,2.0,2.7,40,0.00,,---,0.00,VWS V14.00,2013-02-23 01:32:00,
2013-02-22 17:37:00,57.7,34.2,29.91,NW,315,3.6,3.6,41,0.00,,---,0.00,VWS V14.00,2013-02-23 01:37:00,
2013-02-22 17:42:00,57.7,34.8,29.91,North,0,1.6,1.6,42,0.00,,---,0.00,VWS V14.00,2013-02-23 01:42:00,
2013-02-22 17:48:00,57.6,35.2,29.91,SSW,202,3.4,3.4,43,0.00,,---,0.00,VWS V14.00,2013-02-23 01:48:00,
2013-02-22 17:53:00,56.8,34.6,29.91,WNW,292,1.6,1.6,43,0.00,,---,0.00,VWS V14.00,2013-02-23 01:53:00,
2013-02-22 17:59:00,56.8,34.6,29.91,NNW,338,2.5,2.5,43,0.00,,---,0.00,VWS V14.00,2013-02-23 01:59:00,
2013-02-22 18:04:00,56.7,35.6,29.91,WNW,292,2.5,2.5,45,0.00,,---,0.00,VWS V14.00,2013-02-23 02:04:00,
2013-02-22 18:09:00,56.3,35.2,29.91,NNW,338,2.7,4.0,45,0.00,,---,0.00,VWS V14.00,2013-02-23 02:09:00,
2013-02-22 18:14:00,55.9,35.5,29.91,NW,315,2.7,3.8,46,0.00,,---,0.00,VWS V14.00,2013-02-23 02:14:00,
2013-02-22 18:19:00,55.6,35.2,29.91,WNW,292,1.3,3.4,46,0.00,,---,0.00,VWS V14.00,2013-02-23 02:19:00,
2013-02-22 18:24:00,55.6,35.2,29.91,NW,315,1.3,1.6,46,0.00,,---,0.00,VWS V14.00,2013-02-23 02:24:00,
2013-02-22 18:29:00,54.9,35.0,29.91,NW,315,0.0,0.0,47,0.00,,---,0.00,VWS V14.00,2013-02-23 02:29:00,
2013-02-22 18:34:00,54.7,35.4,29.91,NW,315,0.0,0.0,48,0.00,,---,0.00,VWS V14.00,2013-02-23 02:34:00,
2013-02-22 18:39:00,54.5,34.7,29.91,SSW,202,1.3,1.3,47,0.00,,---,0.00,VWS V14.00,2013-02-23 02:39:00,
2013-02-22 18:44:00,54.5,35.2,29.91,SSW,202,1.3,1.3,48,0.00,,---,0.00,VWS V14.00,2013-02-23 02:44:00,
2013-02-22 18:49:00,54.9,35.6,29.91,SSE,158,0.0,0.0,48,0.00,,---,0.00,VWS V14.00,2013-02-23 02:49:00,
2013-02-22 18:55:00,54.5,35.2,29.91,South,180,0.0,0.0,48,0.00,,---,0.00,VWS V14.00,2013-02-23 02:55:00,
2013-02-22 19:00:00,54.1,35.4,29.91,SSE,158,0.0,0.0,49,0.00,,---,0.00,VWS V14.00,2013-02-23 03:00:00,
2013-02-22 19:05:00,54.1,35.4,29.91,NW,315,0.0,0.0,49,0.00,,---,0.00,VWS V14.00,2013-02-23 03:05:00,
2013-02-22 19:10:00,54.1,35.4,29.91,WNW,292,2.5,2.5,49,0.00,,---,0.00,VWS V14.00,2013-02-23 03:10:00,
2013-02-22 19:15:00,53.6,35.4,29.91,NW,315,1.6,1.6,50,0.00,,---,0.00,VWS V14.00,2013-02-23 03:15:00,
2013-02-22 19:20:00,53.4,35.8,29.94,WNW,292,1.3,2.7,51,0.00,,---,0.00,VWS V14.00,2013-02-23 03:20:00,
2013-02-22 19:26:00,53.2,35.6,29.94,NW,315,2.0,3.6,51,0.00,,---,0.00,VWS V14.00,2013-02-23 03:26:00,
2013-02-22 19:31:00,53.2,36.1,29.94,WNW,292,2.5,2.5,52,0.00,,---,0.00,VWS V14.00,2013-02-23 03:31:00,
2013-02-22 19:36:00,53.2,36.6,29.94,WNW,292,2.5,2.5,53,0.00,,---,0.00,VWS V14.00,2013-02-23 03:36:00,
2013-02-22 19:42:00,53.2,36.6,29.94,WNW,292,2.2,2.2,53,0.00,,---,0.00,VWS V14.00,2013-02-23 03:42:00,
2013-02-22 19:47:00,52.7,36.5,29.94,WNW,292,1.3,3.8,54,0.00,,---,0.00,VWS V14.00,2013-02-23 03:47:00,
2013-02-22 19:52:00,52.9,37.6,29.94,SE,135,0.9,2.5,56,0.00,,---,0.00,VWS V14.00,2013-02-23 03:52:00,
2013-02-22 19:57:00,52.9,37.6,29.94,ESE,112,0.0,2.0,56,0.00,,---,0.00,VWS V14.00,2013-02-23 03:57:00,
2013-02-22 20:02:00,53.1,38.2,29.94,NNW,338,0.9,0.9,57,0.00,,---,0.00,VWS V14.00,2013-02-23 04:02:00,
2013-02-22 20:08:00,53.1,38.2,29.94,WNW,292,0.0,1.6,57,0.00,,---,0.00,VWS V14.00,2013-02-23 04:08:00,
2013-02-22 20:13:00,53.1,38.2,29.94,WNW,292,0.0,0.0,57,0.00,,---,0.00,VWS V14.00,2013-02-23 04:13:00,
2013-02-22 20:18:00,52.3,38.0,29.94,WNW,292,0.0,0.0,58,0.00,,---,0.00,VWS V14.00,2013-02-23 04:18:00,
2013-02-22 20:24:00,52.0,38.1,29.94,ESE,112,1.1,1.1,59,0.00,,---,0.00,VWS V14.00,2013-02-23 04:24:00,
2013-02-22 20:29:00,51.8,37.9,29.94,ESE,112,2.9,2.9,59,0.00,,---,0.00,VWS V14.00,2013-02-23 04:29:00,
2013-02-22 20:34:00,51.8,38.4,29.94,SSE,158,2.5,2.5,60,0.00,,---,0.00,VWS V14.00,2013-02-23 04:34:00,
2013-02-22 20:39:00,51.8,38.4,29.94,SSE,158,2.7,2.7,60,0.00,,---,0.00,VWS V14.00,2013-02-23 04:39:00,
2013-02-22 20:44:00,51.6,38.2,29.94,South,180,3.6,3.8,60,0.00,,---,0.00,VWS V14.00,2013-02-23 04:44:00,
2013-02-22 20:50:00,51.3,37.9,29.94,South,180,2.2,3.1,60,0.00,,---,0.00,VWS V14.00,2013-02-23 04:50:00,
2013-02-22 20:55:00,51.3,38.3,29.94,ESE,112,3.1,3.1,61,0.00,,---,0.00,VWS V14.00,2013-02-23 04:55:00,
2013-02-22 21:00:00,51.3,38.3,29.94,SW,225,0.9,4.0,61,0.00,,---,0.00,VWS V14.00,2013-02-23 05:00:00,
2013-02-22 21:01:00,51.3,38.3,29.94,South,180,1.6,1.6,61,0.00,,---,0.00,VWS V14.00,2013-02-23 05:01:00,
2013-02-22 21:02:00,51.4,38.9,29.94,South,180,0.0,1.6,62,0.00,,---,0.00,VWS V14.00,2013-02-23 05:02:00,
2013-02-22 21:04:00,51.4,38.9,29.94,SSW,202,0.9,1.1,62,0.00,,---,0.00,VWS V14.00,2013-02-23 05:04:00,
2013-02-22 21:09:00,51.4,38.9,29.94,SE,135,1.3,1.3,62,0.00,,---,0.00,VWS V14.00,2013-02-23 05:09:00,
2013-02-22 21:14:00,51.4,38.9,29.94,NW,315,0.0,0.0,62,0.00,,---,0.00,VWS V14.00,2013-02-23 05:14:00,
2013-02-22 21:19:00,51.4,38.9,29.94,WNW,292,2.0,2.7,62,0.00,,---,0.00,VWS V14.00,2013-02-23 05:19:00,
2013-02-22 21:23:00,51.4,38.9,29.94,WNW,292,3.1,4.7,62,0.00,,---,0.00,VWS V14.00,2013-02-23 05:23:00,
2013-02-22 21:29:00,51.4,38.9,29.94,WNW,292,0.0,2.5,62,0.00,,---,0.00,VWS V14.00,2013-02-23 05:29:00,
2013-02-22 21:34:00,51.4,38.9,29.94,WNW,292,0.0,0.0,62,0.00,,---,0.00,VWS V14.00,2013-02-23 05:34:00,
2013-02-22 21:39:00,50.9,39.2,29.97,WSW,248,0.9,1.6,64,0.00,,---,0.00,VWS V14.00,2013-02-23 05:39:00,
2013-02-22 21:44:00,50.9,39.2,29.97,WNW,292,0.0,1.6,64,0.00,,---,0.00,VWS V14.00,2013-02-23 05:44:00,
2013-02-22 21:49:00,50.7,39.0,29.97,NNW,338,1.6,3.4,64,0.00,,---,0.00,VWS V14.00,2013-02-23 05:49:00,
2013-02-22 21:54:00,50.7,39.0,29.97,WSW,248,2.0,2.0,64,0.00,,---,0.00,VWS V14.00,2013-02-23 05:54:00,
2013-02-22 22:00:00,50.9,39.6,29.97,WNW,292,2.5,2.5,65,0.00,,---,0.00,VWS V14.00,2013-02-23 06:00:00,
2013-02-22 22:05:00,51.1,39.7,29.97,WNW,292,3.1,3.1,65,0.00,,---,0.00,VWS V14.00,2013-02-23 06:05:00,
2013-02-22 22:10:00,51.1,40.1,29.97,North,0,1.3,2.5,66,0.00,,---,0.00,VWS V14.00,2013-02-23 06:10:00,
2013-02-22 22:16:00,51.1,40.1,29.97,NW,315,0.0,2.0,66,0.00,,---,0.00,VWS V14.00,2013-02-23 06:16:00,
2013-02-22 22:21:00,51.1,40.1,29.97,SSW,202,1.6,1.6,66,0.00,,---,0.00,VWS V14.00,2013-02-23 06:21:00,
2013-02-22 22:27:00,51.1,40.1,29.97,SSE,158,0.0,1.1,66,0.00,,---,0.00,VWS V14.00,2013-02-23 06:27:00,
2013-02-22 22:33:00,51.6,41.0,29.97,SSE,158,1.1,1.1,67,0.00,,---,0.00,VWS V14.00,2013-02-23 06:33:00,
2013-02-22 22:38:00,51.8,40.8,29.97,NE,45,0.0,2.0,66,0.00,,---,0.00,VWS V14.00,2013-02-23 06:38:00,
2013-02-22 22:43:00,51.8,40.8,29.97,SE,135,1.3,2.5,66,0.00,,---,0.00,VWS V14.00,2013-02-23 06:43:00,
2013-02-22 22:48:00,52.0,41.0,29.97,South,180,0.9,2.2,66,0.00,,---,0.00,VWS V14.00,2013-02-23 06:48:00,
2013-02-22 22:53:00,52.0,41.0,29.97,WNW,292,0.9,2.2,66,0.00,,---,0.00,VWS V14.00,2013-02-23 06:53:00,
2013-02-22 22:58:00,51.6,40.7,29.97,SSE,158,2.0,2.0,66,0.00,,---,0.00,VWS V14.00,2013-02-23 06:58:00,
2013-02-22 23:03:00,52.0,40.6,29.97,NW,315,2.9,2.9,65,0.00,,---,0.00,VWS V14.00,2013-02-23 07:03:00,
2013-02-22 23:08:00,52.0,40.6,29.97,WNW,292,2.5,3.8,65,0.00,,---,0.00,VWS V14.00,2013-02-23 07:08:00,
2013-02-22 23:14:00,52.2,40.8,29.97,North,0,3.1,4.0,65,0.00,,---,0.00,VWS V14.00,2013-02-23 07:14:00,
2013-02-22 23:20:00,52.2,40.8,29.97,NNW,338,3.1,4.0,65,0.00,,---,0.00,VWS V14.00,2013-02-23 07:20:00,
2013-02-22 23:25:00,52.2,40.8,29.97,WNW,292,2.0,2.0,65,0.00,,---,0.00,VWS V14.00,2013-02-23 07:25:00,
2013-02-22 23:30:00,52.2,41.2,29.97,NW,315,6.9,6.9,66,0.00,,---,0.00,VWS V14.00,2013-02-23 07:30:00,
2013-02-22 23:35:00,52.0,41.0,29.97,NW,315,2.9,3.8,66,0.00,,---,0.00,VWS V14.00,2013-02-23 07:35:00,
2013-02-22 23:41:00,52.0,41.0,29.97,WNW,292,3.1,3.1,66,0.00,,---,0.00,VWS V14.00,2013-02-23 07:41:00,
2013-02-22 23:46:00,52.0,41.0,29.97,NW,315,3.4,3.4,66,0.00,,---,0.00,VWS V14.00,2013-02-23 07:46:00,
2013-02-22 23:51:00,51.8,41.2,29.97,SSW,202,2.9,3.4,67,0.00,,---,0.00,VWS V14.00,2013-02-23 07:51:00,
2013-02-22 23:56:00,51.6,41.4,29.97,WNW,292,3.4,4.9,68,0.00,,---,0.00,VWS V14.00,2013-02-23 07:56:00,